Time;durP1;ratioP1;P1;durP2;ratioP2;P2;SDS_P1;SDS_P2;PMS_P1;PMS_P2;Temp;Humidity;BMP_temperature;BMP_pressure;BME280_temperature;BME280_humidity;BME280_pressure;Samples;Min_cycle;Max_cycle;Signal;HPM_P1;HPM_P2
2024/01/31 00:00:46;;;;;;;19.83;8.70;;;;;;;-0.73;100.00;103677.75;2104235;28;20547;-67
2024/01/31 00:01:47;;;;;;;15.73;9.10;;;;;;;-0.78;100.00;103672.34;2104690;28;20222;-67
2024/01/31 00:02:47;;;;;;;22.97;8.47;;;;;;;-1.36;100.00;103597.03;2097683;28;20214;-67
2024/01/31 00:03:48;;;;;;;16.40;9.53;;;;;;;-0.86;100.00;103678.41;2096008;28;20180;-67
2024/01/31 00:04:48;;;;;;;15.77;9.27;;;;;;;-0.90;100.00;103693.66;2102252;28;20268;-67
2024/01/31 00:05:49;;;;;;;14.37;8.40;;;;;;;-0.89;100.00;103675.44;2105076;28;20228;-67
2024/01/31 00:06:50;;;;;;;15.30;9.00;;;;;;;-0.93;100.00;103678.69;2097025;28;20199;-67
2024/01/31 00:07:51;;;;;;;17.17;9.23;;;;;;;-1.83;100.00;103530.66;2096059;28;20190;-67
2024/01/31 00:08:52;;;;;;;15.80;8.80;;;;;;;-1.65;100.00;103557.22;2104220;28;20282;-67
2024/01/31 00:09:52;;;;;;;16.40;8.50;;;;;;;-1.03;100.00;103671.69;2102389;28;20181;-67
2024/01/31 00:10:53;;;;;;;18.30;8.97;;;;;;;-1.38;100.00;103650.09;2102413;28;20710;-67
2024/01/31 00:11:53;;;;;;;15.30;8.53;;;;;;;-1.35;100.00;103620.41;2105598;28;20663;-67
2024/01/31 00:12:54;;;;;;;15.97;8.67;;;;;;;-1.93;100.00;103520.66;2099572;28;20190;-67
2024/01/31 00:13:57;;;;;;;17.57;8.57;;;;;;;-1.58;100.00;103583.81;2096709;28;20198;-67
2024/01/31 00:14:58;;;;;;;18.08;9.60;;;;;;;-1.03;100.00;103672.50;2097413;28;20756;-67
2024/01/31 00:15:58;;;;;;;19.47;9.27;;;;;;;-2.48;100.00;103435.81;2096507;28;20572;-67
2024/01/31 00:16:59;;;;;;;15.93;7.73;;;;;;;-1.84;100.00;103551.59;2094990;28;20226;-67
2024/01/31 00:17:59;;;;;;;14.70;8.13;;;;;;;-1.03;100.00;103683.38;2097214;28;20191;-67
2024/01/31 00:19:01;;;;;;;14.10;8.50;;;;;;;-0.99;100.00;103680.94;2106154;28;20198;-67
2024/01/31 00:20:02;;;;;;;11.98;7.45;;;;;;;-0.98;100.00;103675.19;2103636;28;20182;-67
2024/01/31 00:21:03;;;;;;;15.37;8.50;;;;;;;-1.48;100.00;103606.63;2102184;28;20198;-67
2024/01/31 00:22:03;;;;;;;12.83;7.80;;;;;;;-1.09;100.00;103672.81;2104485;28;20185;-67
2024/01/31 00:23:06;;;;;;;13.37;7.90;;;;;;;-0.97;100.00;103679.56;2100815;28;20186;-67
2024/01/31 00:24:06;;;;;;;13.98;8.70;;;;;;;-0.99;100.00;103689.09;2105140;28;20182;-67
2024/01/31 00:25:07;;;;;;;12.50;7.80;;;;;;;-1.38;100.00;103621.78;2103649;28;20765;-67
2024/01/31 00:26:07;;;;;;;13.57;8.60;;;;;;;-0.99;100.00;103670.03;2104373;28;20183;-67
2024/01/31 00:27:08;;;;;;;13.03;7.83;;;;;;;-1.74;100.00;103559.72;2102464;28;20237;-67
2024/01/31 00:28:08;;;;;;;11.50;6.97;;;;;;;-1.03;100.00;103685.31;2103933;28;20613;-67
2024/01/31 00:29:09;;;;;;;15.50;8.57;;;;;;;-1.06;100.00;103681.22;2103182;28;20575;-67
2024/01/31 00:30:10;;;;;;;14.37;8.30;;;;;;;-1.09;100.00;103686.44;2101995;28;20576;-67
2024/01/31 00:31:11;;;;;;;12.73;7.20;;;;;;;-1.33;100.00;103650.91;2100411;28;20243;-67
2024/01/31 00:32:11;;;;;;;15.00;8.87;;;;;;;-1.54;100.00;103622.13;2100393;28;20183;-67
2024/01/31 00:33:12;;;;;;;14.93;8.17;;;;;;;-1.16;100.00;103681.28;2102752;28;20512;-67
2024/01/31 00:34:12;;;;;;;18.67;8.93;;;;;;;-1.19;100.00;103681.03;2100359;28;20230;-67
2024/01/31 00:35:13;;;;;;;13.03;8.27;;;;;;;-1.71;100.00;103623.59;2103910;28;20206;-67
2024/01/31 00:36:15;;;;;;;15.60;8.10;;;;;;;-1.34;100.00;103681.91;2104055;28;20198;-67
2024/01/31 00:37:15;;;;;;;14.63;8.45;;;;;;;-1.30;100.00;103688.41;2102167;28;20571;-67
2024/01/31 00:38:16;;;;;;;16.33;8.33;;;;;;;-1.66;100.00;103635.25;2101877;28;20194;-67
2024/01/31 00:39:16;;;;;;;16.87;8.77;;;;;;;-1.37;100.00;103685.19;2103146;28;20576;-67
2024/01/31 00:40:18;;;;;;;18.30;8.97;;;;;;;-1.39;100.00;103678.41;2106880;28;20666;-67
2024/01/31 00:41:19;;;;;;;16.70;9.38;;;;;;;-1.78;100.00;103632.03;2101366;28;20217;-67
2024/01/31 00:42:19;;;;;;;16.50;9.87;;;;;;;-1.34;100.00;103679.19;2101972;28;20214;-67
2024/01/31 00:43:20;;;;;;;14.37;8.33;;;;;;;-1.91;100.00;103580.16;2103741;28;20186;-67
2024/01/31 00:44:21;;;;;;;14.73;8.67;;;;;;;-1.88;100.00;103587.75;2101712;28;20186;-67
2024/01/31 00:45:23;;;;;;;18.87;9.60;;;;;;;-1.47;100.00;103642.50;2102544;28;20178;-67
2024/01/31 00:46:23;;;;;;;14.05;9.05;;;;;;;-1.92;100.00;103594.81;2096343;28;20653;-67
2024/01/31 00:47:24;;;;;;;13.77;7.67;;;;;;;-1.29;100.00;103671.00;2096382;28;20731;-67
2024/01/31 00:48:24;;;;;;;16.73;8.67;;;;;;;-1.38;100.00;103650.09;2105658;28;20284;-67
2024/01/31 00:49:25;;;;;;;17.83;8.27;;;;;;;-1.22;100.00;103676.97;2104794;28;20269;-67
2024/01/31 00:50:25;;;;;;;13.87;8.40;;;;;;;-1.17;100.00;103671.50;2101227;28;20285;-67
2024/01/31 00:51:26;;;;;;;16.73;8.27;;;;;;;-1.28;100.00;103656.31;2101436;28;20225;-67
2024/01/31 00:52:26;;;;;;;17.87;8.80;;;;;;;-1.72;100.00;103576.56;2097443;28;20185;-67
2024/01/31 00:53:27;;;;;;;14.37;8.53;;;;;;;-2.01;100.00;103523.94;2096876;28;20250;-67
2024/01/31 00:54:27;;;;;;;16.50;8.37;;;;;;;-1.73;100.00;103559.41;2103507;28;20283;-68
2024/01/31 00:55:28;;;;;;;12.17;7.00;;;;;;;-1.08;100.00;103663.56;2100839;28;20214;-67
2024/01/31 00:56:28;;;;;;;11.00;7.20;;;;;;;-1.23;100.00;103643.50;2103236;28;20202;-67
2024/01/31 00:57:29;;;;;;;15.07;8.13;;;;;;;-1.72;100.00;103562.94;2102795;28;20186;-67
2024/01/31 00:58:31;;;;;;;13.87;7.50;;;;;;;-1.02;100.00;103667.88;2103464;28;20684;-67
2024/01/31 00:59:32;;;;;;;10.57;5.82;;;;;;;-1.11;100.00;103660.28;2100781;28;20276;-67
2024/01/31 01:00:32;;;;;;;9.00;5.43;;;;;;;-1.30;100.00;103627.75;2098906;28;20206;-67
2024/01/31 01:01:33;;;;;;;14.67;7.00;;;;;;;-1.36;100.00;103618.81;2102172;28;20201;-67
2024/01/31 01:02:35;;;;;;;12.63;6.50;;;;;;;-1.38;100.00;103608.19;2102593;28;20211;-67
2024/01/31 01:03:36;;;;;;;13.77;7.65;;;;;;;-0.95;100.00;103663.75;2101700;28;20649;-67
2024/01/31 01:04:36;;;;;;;15.33;8.07;;;;;;;-1.73;100.00;103547.75;2100055;28;20633;-67
2024/01/31 01:05:37;;;;;;;15.97;7.43;;;;;;;-0.98;100.00;103664.28;2101733;28;20620;-67
2024/01/31 01:06:41;;;;;;;14.70;7.90;;;;;;;-1.03;100.00;103652.63;2105039;28;20269;-67
2024/01/31 01:07:45;;;;;;;14.23;6.50;;;;;;;-0.94;100.00;103659.91;2103947;28;20202;-67
2024/01/31 01:08:46;;;;;;;15.23;6.90;;;;;;;-0.93;100.00;103669.72;2096015;28;20195;-67
2024/01/31 01:09:47;;;;;;;13.15;6.25;;;;;;;-1.29;100.00;103597.53;2097014;28;20277;-67
2024/01/31 01:10:47;;;;;;;13.47;7.57;;;;;;;-0.92;100.00;103652.31;2096893;28;20187;-67
2024/01/31 01:11:48;;;;;;;10.73;5.57;;;;;;;-0.88;100.00;103656.88;2105676;28;20193;-67
2024/01/31 01:12:48;;;;;;;14.57;6.40;;;;;;;-1.30;100.00;103585.03;2111016;28;20186;-67
2024/01/31 01:13:49;;;;;;;15.10;6.87;;;;;;;-0.86;100.00;103643.00;2103014;28;20190;-67
2024/01/31 01:14:49;;;;;;;11.03;5.67;;;;;;;-0.94;100.00;103645.50;2100879;28;20195;-67
2024/01/31 01:15:50;;;;;;;14.50;6.90;;;;;;;-1.07;100.00;103636.06;2100782;28;20327;-67
2024/01/31 01:16:50;;;;;;;13.43;7.30;;;;;;;-0.93;100.00;103654.19;2102390;28;20626;-67
2024/01/31 01:17:51;;;;;;;10.90;6.23;;;;;;;-0.89;100.00;103657.16;2103183;28;20189;-67
2024/01/31 01:18:51;;;;;;;15.50;6.90;;;;;;;-0.99;100.00;103642.81;2104502;28;20560;-67
2024/01/31 01:19:52;;;;;;;16.97;6.60;;;;;;;-1.15;100.00;103620.31;2097072;28;20269;-67
2024/01/31 01:20:52;;;;;;;14.67;9.33;;;;;;;-1.60;100.00;103552.56;2096937;28;20190;-67
2024/01/31 01:21:53;;;;;;;15.27;9.13;;;;;;;-1.25;100.00;103612.22;2105874;28;20656;-67
2024/01/31 01:22:55;;;;;;;14.40;7.80;;;;;;;-1.04;100.00;103648.28;2098073;28;20632;-67
2024/01/31 01:23:56;;;;;;;12.52;6.95;;;;;;;-1.05;100.00;103642.03;2105090;28;20190;-67
2024/01/31 01:24:56;;;;;;;11.40;5.63;;;;;;;-1.01;100.00;103646.63;2102827;28;20215;-67
2024/01/31 01:25:57;;;;;;;13.70;7.20;;;;;;;-1.01;100.00;103641.16;2103579;28;20194;-67
2024/01/31 01:26:57;;;;;;;9.73;6.07;;;;;;;-1.42;100.00;103570.97;2101640;28;20204;-67
2024/01/31 01:27:58;;;;;;;12.13;6.93;;;;;;;-1.16;100.00;103618.69;2099913;28;20285;-67
2024/01/31 01:28:58;;;;;;;13.90;6.07;;;;;;;-0.93;100.00;103635.13;2103526;28;20186;-67
2024/01/31 01:29:59;;;;;;;12.43;6.50;;;;;;;-0.91;100.00;103641.09;2104688;28;20186;-67
2024/01/31 01:30:59;;;;;;;11.43;5.80;;;;;;;-0.86;100.00;103637.56;2103497;28;20193;-67
2024/01/31 01:32:00;;;;;;;12.50;6.23;;;;;;;-1.16;100.00;103583.31;2100089;28;20255;-67
2024/01/31 01:33:00;;;;;;;9.80;5.73;;;;;;;-0.85;100.00;103631.00;2106249;28;20229;-67
2024/01/31 01:34:01;;;;;;;10.73;6.27;;;;;;;-0.93;100.00;103623.44;2104741;28;20575;-67
2024/01/31 01:35:01;;;;;;;13.50;6.50;;;;;;;-0.89;100.00;103635.38;2100308;28;20710;-67
2024/01/31 01:36:03;;;;;;;13.50;6.27;;;;;;;-0.88;100.00;103628.84;2096591;28;20254;-67
2024/01/31 01:37:04;;;;;;;9.60;5.22;;;;;;;-1.17;100.00;103574.31;2097093;28;20635;-67
2024/01/31 01:38:04;;;;;;;9.77;5.20;;;;;;;-1.20;100.00;103571.34;2103792;28;20197;-67
2024/01/31 01:39:05;;;;;;;8.87;5.37;;;;;;;-1.13;100.00;103579.22;2099030;28;20223;-67
2024/01/31 01:40:07;;;;;;;9.50;5.63;;;;;;;-0.77;100.00;103628.50;2102051;28;20626;-67
2024/01/31 01:41:07;;;;;;;7.97;4.80;;;;;;;-1.02;100.00;103598.72;2095374;28;20241;-67
2024/01/31 01:42:08;;;;;;;10.27;5.50;;;;;;;-1.24;100.00;103545.00;2097304;28;20187;-67
2024/01/31 01:43:19;;;;;;;8.33;4.23;;;;;;;-0.72;100.00;103620.28;2102086;28;20689;-67
2024/01/31 01:44:19;;;;;;;9.65;5.22;;;;;;;-0.73;100.00;103635.00;2104655;28;20179;-67
2024/01/31 01:45:20;;;;;;;10.03;5.57;;;;;;;-0.89;100.00;103599.19;2103898;28;20179;-67
2024/01/31 01:46:22;;;;;;;11.13;5.80;;;;;;;-0.69;100.00;103624.34;2103352;28;20627;-67
2024/01/31 01:47:24;;;;;;;11.20;6.10;;;;;;;-0.71;100.00;103618.38;2096694;28;20669;-67
2024/01/31 01:48:24;;;;;;;9.65;6.07;;;;;;;-0.68;100.00;103622.44;2096666;28;20194;-67
2024/01/31 01:49:25;;;;;;;10.57;6.33;;;;;;;-1.67;100.00;103489.50;2106066;28;20216;-67
2024/01/31 01:50:26;;;;;;;9.60;5.57;;;;;;;-0.71;100.00;103640.16;2105410;28;20198;-67
2024/01/31 01:51:27;;;;;;;12.53;5.37;;;;;;;-1.18;100.00;103550.09;2103100;28;20194;-67
2024/01/31 01:52:27;;;;;;;8.60;5.00;;;;;;;-0.67;100.00;103624.88;2104109;28;20224;-67
2024/01/31 01:53:30;;;;;;;11.10;5.57;;;;;;;-0.70;100.00;103626.25;2103089;28;20197;-67
2024/01/31 01:54:32;;;;;;;8.38;4.65;;;;;;;-0.93;100.00;103585.31;2096305;28;20198;-67
2024/01/31 01:55:33;;;;;;;11.05;5.47;;;;;;;-0.74;100.00;103624.38;2095301;28;20294;-67
2024/01/31 01:56:33;;;;;;;18.57;6.40;;;;;;;-0.85;100.00;103626.34;2104014;28;20195;-67
2024/01/31 01:57:36;;;;;;;11.03;6.40;;;;;;;-0.79;100.00;103624.41;2102895;28;20195;-67
2024/01/31 01:58:37;;;;;;;10.50;5.90;;;;;;;-0.76;100.00;103621.16;2093548;28;20238;-67
2024/01/31 01:59:38;;;;;;;11.55;5.75;;;;;;;-0.98;100.00;103592.72;2096676;28;20604;-67
2024/01/31 02:00:40;;;;;;;12.70;5.83;;;;;;;-0.93;100.00;103604.38;2104606;28;20266;-67
2024/01/31 02:01:41;;;;;;;9.48;5.18;;;;;;;-0.86;100.00;103619.28;2103544;28;20183;-67
2024/01/31 02:02:42;;;;;;;16.38;6.82;;;;;;;-1.23;100.00;103559.13;2100496;28;20191;-67
2024/01/31 02:03:44;;;;;;;14.00;6.13;;;;;;;-0.87;100.00;103620.41;2096587;28;20264;-67
2024/01/31 02:04:47;;;;;;;12.15;6.75;;;;;;;-0.86;100.00;103618.50;2096838;28;20271;-67
2024/01/31 02:05:47;;;;;;;9.10;5.95;;;;;;;-1.47;100.00;103527.47;2105817;28;20213;-67
2024/01/31 02:06:48;;;;;;;11.40;6.70;;;;;;;-0.89;100.00;103615.53;2096930;28;20224;-67
2024/01/31 02:07:49;;;;;;;8.53;4.87;;;;;;;-1.58;100.00;103509.59;2096227;28;20180;-67
2024/01/31 02:08:51;;;;;;;10.57;5.80;;;;;;;-0.89;100.00;103619.03;2089623;28;20195;-67
2024/01/31 02:09:54;;;;;;;11.27;5.80;;;;;;;-0.88;100.00;103616.06;2092558;28;20184;-67
2024/01/31 02:10:58;;;;;;;9.40;5.32;;;;;;;-0.92;100.00;103619.63;2105405;28;20195;-67
2024/01/31 02:11:58;;;;;;;9.98;4.85;;;;;;;-0.89;100.00;103608.16;2099752;28;20206;-67
2024/01/31 02:12:59;;;;;;;7.57;5.33;;;;;;;-0.95;100.00;103601.13;2100854;28;20204;-67
2024/01/31 02:14:00;;;;;;;6.40;3.73;;;;;;;-1.31;100.00;103561.63;2101861;28;20179;-67
2024/01/31 02:15:00;;;;;;;18.60;4.80;;;;;;;-1.49;100.00;103518.75;2105619;28;20227;-67
2024/01/31 02:16:01;;;;;;;10.67;5.40;;;;;;;-0.84;100.00;103605.41;2099384;28;20186;-67
2024/01/31 02:17:01;;;;;;;10.00;5.30;;;;;;;-0.77;100.00;103621.41;2102504;28;20198;-67
2024/01/31 02:18:02;;;;;;;9.30;5.40;;;;;;;-0.85;100.00;103599.13;2100608;28;20215;-67
2024/01/31 02:19:02;;;;;;;7.50;4.43;;;;;;;-1.23;100.00;103552.88;2097022;28;20185;-67
2024/01/31 02:20:03;;;;;;;10.97;5.67;;;;;;;-1.72;100.00;103448.75;2096147;28;20613;-67
2024/01/31 02:21:04;;;;;;;8.38;4.28;;;;;;;-0.73;100.00;103612.38;2101119;28;20178;-67
2024/01/31 02:22:06;;;;;;;9.67;4.93;;;;;;;-1.31;100.00;103520.81;2105460;28;20202;-67
2024/01/31 02:23:07;;;;;;;14.85;6.68;;;;;;;-1.42;100.00;103502.94;2104441;28;20187;-67
2024/01/31 02:24:07;;;;;;;11.43;5.60;;;;;;;-0.83;100.00;103595.34;2104459;28;20682;-67
2024/01/31 02:25:13;;;;;;;9.60;5.37;;;;;;;-0.73;100.00;103613.22;2099929;28;20695;-67
2024/01/31 02:26:14;;;;;;;9.82;5.47;;;;;;;-0.99;100.00;103574.78;2096648;28;20228;-67
2024/01/31 02:27:14;;;;;;;10.33;5.50;;;;;;;-0.86;100.00;103604.88;2097095;28;20191;-67
2024/01/31 02:28:15;;;;;;;14.50;5.13;;;;;;;-0.88;100.00;103628.84;2105825;28;20268;-67
2024/01/31 02:29:15;;;;;;;15.80;6.00;;;;;;;-0.94;100.00;103605.47;2100326;28;20191;-67
2024/01/31 02:30:16;;;;;;;13.33;5.87;;;;;;;-1.20;100.00;103576.81;2104070;28;20190;-67
2024/01/31 02:31:16;;;;;;;10.63;5.43;;;;;;;-1.13;100.00;103599.88;2105699;28;20235;-67
2024/01/31 02:32:17;;;;;;;12.67;5.87;;;;;;;-1.13;100.00;103609.94;2104004;28;20769;-67
2024/01/31 02:33:17;;;;;;;12.37;6.43;;;;;;;-1.30;100.00;103586.94;2103924;28;20175;-67
2024/01/31 02:34:18;;;;;;;10.40;5.97;;;;;;;-1.81;100.00;103512.16;2106045;28;20218;-67
2024/01/31 02:35:19;;;;;;;11.57;6.27;;;;;;;-1.35;100.00;103598.66;2106227;28;20201;-66
2024/01/31 02:36:19;;;;;;;13.53;6.13;;;;;;;-1.33;100.00;103605.44;2102926;28;20254;-67
2024/01/31 02:37:20;;;;;;;10.83;5.80;;;;;;;-1.39;100.00;103602.22;2101594;28;20179;-67
2024/01/31 02:38:20;;;;;;;10.23;5.40;;;;;;;-1.45;100.00;103606.06;2095123;28;20296;-67
2024/01/31 02:39:21;;;;;;;9.07;6.17;;;;;;;-2.13;100.00;103517.19;2097160;28;20179;-67
2024/01/31 02:40:22;;;;;;;12.73;6.57;;;;;;;-1.58;100.00;103606.66;2113866;28;20566;-67
2024/01/31 02:41:22;;;;;;;10.15;6.10;;;;;;;-1.59;100.00;103611.28;2112191;28;20685;-67
2024/01/31 02:42:23;;;;;;;13.53;7.07;;;;;;;-2.29;100.00;103494.69;2096848;28;20190;-67
2024/01/31 02:43:23;;;;;;;13.80;6.97;;;;;;;-1.64;100.00;103605.88;2096782;28;20274;-67
2024/01/31 02:44:24;;;;;;;12.03;6.47;;;;;;;-1.68;100.00;103604.81;2096579;28;20182;-66
2024/01/31 02:45:24;;;;;;;12.27;6.77;;;;;;;-1.95;100.00;103560.84;2096874;28;20193;-67
2024/01/31 02:46:25;;;;;;;12.53;6.53;;;;;;;-1.69;100.00;103607.81;2097015;28;20312;-67
2024/01/31 02:47:25;;;;;;;11.87;6.73;;;;;;;-1.75;100.00;103595.31;2091985;28;20294;-67
2024/01/31 02:48:26;;;;;;;12.43;6.43;;;;;;;-2.00;100.00;103569.03;2097011;28;20187;-67
2024/01/31 02:49:26;;;;;;;14.27;7.03;;;;;;;-1.79;100.00;103603.22;2105214;28;20673;-67
2024/01/31 02:50:30;;;;;;;10.87;6.20;;;;;;;-1.86;100.00;103605.41;2104567;28;20217;-67
2024/01/31 02:51:30;;;;;;;8.27;5.22;;;;;;;-1.88;100.00;103604.06;2102761;28;20213;-67
2024/01/31 02:52:31;;;;;;;11.93;6.17;;;;;;;-2.44;100.00;103511.03;2099597;28;20721;-67
2024/01/31 02:53:31;;;;;;;9.97;5.50;;;;;;;-2.05;100.00;103576.41;2100144;28;20190;-67
2024/01/31 02:54:32;;;;;;;12.50;6.03;;;;;;;-1.99;100.00;103587.00;2096783;28;20224;-66
2024/01/31 02:55:32;;;;;;;12.87;6.33;;;;;;;-1.89;100.00;103599.72;2096370;28;20252;-67
2024/01/31 02:56:33;;;;;;;15.60;6.87;;;;;;;-1.89;100.00;103592.41;2099492;28;20183;-67
2024/01/31 02:57:34;;;;;;;10.80;6.10;;;;;;;-2.22;100.00;103541.41;2103389;28;20215;-67
2024/01/31 02:58:36;;;;;;;13.93;6.32;;;;;;;-2.36;100.00;103521.31;2097673;28;20195;-67
2024/01/31 02:59:36;;;;;;;20.83;6.97;;;;;;;-2.02;100.00;103573.94;2105215;28;20201;-66
2024/01/31 03:00:37;;;;;;;14.90;6.50;;;;;;;-1.91;100.00;103593.75;2100422;28;20189;-67
2024/01/31 03:01:44;;;;;;;11.30;5.87;;;;;;;-1.90;100.00;103589.94;2104137;28;20213;-67
2024/01/31 03:02:45;;;;;;;10.93;5.68;;;;;;;-2.06;100.00;103561.19;2101700;28;20187;-67
2024/01/31 03:03:45;;;;;;;13.13;5.93;;;;;;;-2.24;100.00;103540.03;2096513;28;20269;-67
2024/01/31 03:04:46;;;;;;;14.77;5.63;;;;;;;-1.99;100.00;103565.25;2105942;28;20243;-67
2024/01/31 03:05:46;;;;;;;12.30;5.67;;;;;;;-1.86;100.00;103589.09;2104781;28;20194;-67
2024/01/31 03:06:47;;;;;;;13.00;6.27;;;;;;;-2.40;100.00;103505.88;2104548;28;20191;-66
2024/01/31 03:07:47;;;;;;;13.20;5.50;;;;;;;-1.89;100.00;103575.25;2101287;28;20199;-67
2024/01/31 03:08:48;;;;;;;15.20;6.93;;;;;;;-1.86;100.00;103580.16;2103143;28;20284;-67
2024/01/31 03:09:48;;;;;;;12.40;5.73;;;;;;;-1.78;100.00;103590.44;2104918;28;20247;-66
2024/01/31 03:10:49;;;;;;;11.33;6.27;;;;;;;-1.79;100.00;103586.91;2100924;28;20187;-66
2024/01/31 03:11:49;;;;;;;11.63;5.97;;;;;;;-2.02;100.00;103565.78;2104868;28;20197;-67
2024/01/31 03:12:50;;;;;;;20.87;6.40;;;;;;;-1.77;100.00;103592.06;2102263;28;20249;-67
2024/01/31 03:13:50;;;;;;;11.10;5.90;;;;;;;-1.79;100.00;103592.34;2102073;28;20189;-66
2024/01/31 03:14:51;;;;;;;11.03;6.00;;;;;;;-2.33;100.00;103498.22;2100729;28;20200;-66
2024/01/31 03:15:52;;;;;;;12.67;6.33;;;;;;;-2.21;100.00;103525.91;2099030;28;20188;-67
2024/01/31 03:16:52;;;;;;;11.37;6.63;;;;;;;-1.97;100.00;103560.34;2102416;28;20187;-67
2024/01/31 03:17:53;;;;;;;9.50;4.93;;;;;;;-3.21;100.00;103369.53;2103154;28;20190;-66
2024/01/31 03:18:55;;;;;;;11.03;5.17;;;;;;;-1.83;100.00;103590.44;2096410;28;20195;-67
2024/01/31 03:19:56;;;;;;;9.90;5.78;;;;;;;-2.55;100.00;103478.75;2093162;28;20234;-66
2024/01/31 03:20:57;;;;;;;9.60;5.83;;;;;;;-1.98;100.00;103579.63;2102749;28;20201;-66
2024/01/31 03:21:58;;;;;;;10.00;5.50;;;;;;;-1.92;100.00;103595.66;2101603;28;20190;-67
2024/01/31 03:22:58;;;;;;;11.25;5.85;;;;;;;-2.11;100.00;103564.72;2107225;28;20181;-66
2024/01/31 03:23:59;;;;;;;10.07;5.73;;;;;;;-2.03;100.00;103566.06;2106882;28;20193;-67
2024/01/31 03:24:59;;;;;;;9.47;5.77;;;;;;;-2.36;100.00;103529.47;2103764;28;20221;-66
2024/01/31 03:26:00;;;;;;;18.10;6.30;;;;;;;-2.28;100.00;103563.41;2106903;28;20190;-66
2024/01/31 03:27:02;;;;;;;11.07;6.03;;;;;;;-2.69;100.00;103485.81;2102450;28;20198;-67
2024/01/31 03:28:03;;;;;;;16.45;5.85;;;;;;;-2.11;100.00;103580.22;2104560;28;20178;-67
2024/01/31 03:29:04;;;;;;;11.45;5.63;;;;;;;-2.65;100.00;103505.91;2091283;28;20704;-67
2024/01/31 03:30:05;;;;;;;9.83;5.87;;;;;;;-2.49;100.00;103542.81;2095698;28;20527;-66
2024/01/31 03:31:07;;;;;;;12.45;5.70;;;;;;;-2.22;100.00;103584.88;2106731;28;20195;-67
2024/01/31 03:32:07;;;;;;;9.67;5.43;;;;;;;-2.16;100.00;103580.25;2102749;28;20662;-67
2024/01/31 03:33:08;;;;;;;9.43;5.37;;;;;;;-2.14;100.00;103581.59;2099986;28;20176;-67
2024/01/31 03:34:08;;;;;;;11.77;5.70;;;;;;;-2.17;100.00;103582.13;2097714;28;20217;-67
2024/01/31 03:35:09;;;;;;;8.03;4.93;;;;;;;-2.63;100.00;103503.75;2097767;28;20201;-67
2024/01/31 03:36:11;;;;;;;11.30;6.10;;;;;;;-2.28;100.00;103572.38;2104611;28;20190;-67
2024/01/31 03:37:11;;;;;;;15.45;6.05;;;;;;;-2.49;100.00;103540.94;2104929;28;20220;-67
2024/01/31 03:38:12;;;;;;;10.53;4.97;;;;;;;-2.71;100.00;103505.13;2098155;28;20194;-67
2024/01/31 03:39:12;;;;;;;11.83;6.03;;;;;;;-2.20;100.00;103587.31;2098141;28;20190;-67
2024/01/31 03:40:13;;;;;;;11.53;5.23;;;;;;;-2.60;100.00;103527.63;2100726;28;20671;-67
2024/01/31 03:41:13;;;;;;;9.33;5.10;;;;;;;-2.18;100.00;103582.41;2103852;28;20179;-67
2024/01/31 03:42:14;;;;;;;7.80;4.87;;;;;;;-2.54;100.00;103507.53;2105261;28;20194;-67
2024/01/31 03:43:14;;;;;;;12.27;5.50;;;;;;;-2.15;100.00;103571.00;2103630;28;20280;-67
2024/01/31 03:44:15;;;;;;;9.43;5.00;;;;;;;-2.15;100.00;103574.53;2104700;28;20202;-67
2024/01/31 03:45:16;;;;;;;11.47;6.27;;;;;;;-2.16;100.00;103572.09;2102261;28;20549;-67
2024/01/31 03:46:16;;;;;;;8.20;5.40;;;;;;;-2.17;100.00;103575.91;2103129;28;20189;-66
2024/01/31 03:47:17;;;;;;;10.17;5.43;;;;;;;-2.19;100.00;103573.47;2106769;28;20638;-67
2024/01/31 03:48:17;;;;;;;8.30;4.90;;;;;;;-3.08;100.00;103447.63;2104665;28;20655;-66
2024/01/31 03:49:18;;;;;;;19.53;6.10;;;;;;;-2.37;100.00;103554.22;2103166;28;20335;-66
2024/01/31 03:50:19;;;;;;;11.97;6.37;;;;;;;-2.27;100.00;103579.44;2101669;28;20570;-67
2024/01/31 03:51:21;;;;;;;10.63;6.07;;;;;;;-2.85;100.00;103485.06;2103992;28;20187;-66
2024/01/31 03:52:24;;;;;;;18.00;5.60;;;;;;;-2.85;100.00;103482.34;2102044;28;20191;-66
2024/01/31 03:53:25;;;;;;;10.98;5.80;;;;;;;-2.48;100.00;103547.97;2106147;28;20572;-67
2024/01/31 03:54:26;;;;;;;11.95;5.93;;;;;;;-2.95;100.00;103498.63;2102499;28;20194;-67
2024/01/31 03:55:26;;;;;;;12.83;5.67;;;;;;;-2.68;100.00;103520.06;2106317;28;20220;-67
2024/01/31 03:56:27;;;;;;;12.93;5.93;;;;;;;-2.97;100.00;103470.16;2102434;28;20252;-66
2024/01/31 03:57:27;;;;;;;10.27;5.67;;;;;;;-2.33;100.00;103574.28;2105321;28;20573;-67
2024/01/31 03:58:29;;;;;;;12.10;5.77;;;;;;;-2.34;100.00;103569.94;2104084;28;20183;-67
2024/01/31 03:59:30;;;;;;;13.50;6.28;;;;;;;-2.66;100.00;103526.84;2106678;28;20712;-67
2024/01/31 04:00:30;;;;;;;9.57;5.23;;;;;;;-2.76;100.00;103507.03;2107147;28;20615;-67
2024/01/31 04:01:31;;;;;;;11.87;6.43;;;;;;;-2.30;100.00;103577.28;2103168;28;20198;-66
2024/01/31 04:02:32;;;;;;;12.70;5.63;;;;;;;-2.29;100.00;103573.47;2104544;28;20666;-66
2024/01/31 04:03:33;;;;;;;13.67;5.53;;;;;;;-2.28;100.00;103585.97;2101010;28;20187;-66
2024/01/31 04:04:33;;;;;;;9.13;5.40;;;;;;;-2.26;100.00;103572.13;2097295;28;20214;-67
2024/01/31 04:05:34;;;;;;;11.70;6.10;;;;;;;-2.41;100.00;103553.13;2097629;28;20734;-67
2024/01/31 04:06:34;;;;;;;11.63;6.10;;;;;;;-2.41;100.00;103545.78;2104111;28;20718;-67
2024/01/31 04:07:35;;;;;;;8.97;5.10;;;;;;;-2.35;100.00;103555.56;2104995;28;20577;-67
2024/01/31 04:08:36;;;;;;;10.40;5.40;;;;;;;-2.27;100.00;103574.00;2105470;28;20686;-67
2024/01/31 04:09:36;;;;;;;9.17;5.47;;;;;;;-2.46;100.00;103539.56;2104444;28;20702;-67
2024/01/31 04:10:37;;;;;;;9.57;5.37;;;;;;;-2.88;100.00;103482.09;2103141;28;20609;-67
2024/01/31 04:11:37;;;;;;;9.43;5.93;;;;;;;-2.60;100.00;103539.31;2101157;28;20666;-67
2024/01/31 04:12:38;;;;;;;14.87;6.17;;;;;;;-2.71;100.00;103507.84;2104224;28;20242;-66
2024/01/31 04:13:38;;;;;;;10.90;6.13;;;;;;;-2.86;100.00;103475.28;2104441;28;20193;-67
2024/01/31 04:14:38;;;;;;;12.97;6.20;;;;;;;-2.26;100.00;103562.03;2102111;28;20201;-67
2024/01/31 04:15:39;;;;;;;11.70;6.20;;;;;;;-2.24;100.00;103570.75;2103055;28;20248;-67
2024/01/31 04:16:40;;;;;;;13.23;5.83;;;;;;;-2.26;100.00;103562.03;2104285;28;20273;-67
2024/01/31 04:17:40;;;;;;;12.07;6.27;;;;;;;-2.98;100.00;103452.25;2103441;28;20211;-67
2024/01/31 04:18:41;;;;;;;10.57;5.60;;;;;;;-2.28;100.00;103571.56;2106607;28;20634;-67
2024/01/31 04:19:45;;;;;;;9.57;5.43;;;;;;;-2.36;100.00;103550.41;2102435;28;20217;-67
2024/01/31 04:20:46;;;;;;;11.68;5.97;;;;;;;-2.32;100.00;103555.00;2100977;28;20190;-67
2024/01/31 04:21:46;;;;;;;13.53;6.00;;;;;;;-2.30;100.00;103552.84;2103072;28;20197;-67
2024/01/31 04:22:47;;;;;;;12.10;5.93;;;;;;;-2.83;100.00;103461.16;2105109;28;20250;-66
2024/01/31 04:23:48;;;;;;;12.53;5.93;;;;;;;-3.07;100.00;103435.72;2105961;28;20681;-67
2024/01/31 04:24:48;;;;;;;12.77;5.87;;;;;;;-2.22;100.00;103568.56;2105607;28;20667;-67
2024/01/31 04:25:49;;;;;;;12.67;5.67;;;;;;;-2.20;100.00;103560.97;2102108;28;20484;-67
2024/01/31 04:26:49;;;;;;;12.33;5.90;;;;;;;-2.14;100.00;103561.75;2104462;28;20255;-67
2024/01/31 04:27:50;;;;;;;12.00;5.37;;;;;;;-2.71;100.00;103480.69;2104737;28;20194;-67
2024/01/31 04:28:52;;;;;;;12.73;5.17;;;;;;;-2.28;100.00;103547.09;2104604;28;20182;-67
2024/01/31 04:29:52;;;;;;;9.07;5.25;;;;;;;-2.38;100.00;103544.41;2103679;28;20187;-67
2024/01/31 04:30:53;;;;;;;8.93;5.63;;;;;;;-2.26;100.00;103536.81;2102414;28;20212;-67
2024/01/31 04:31:53;;;;;;;13.03;5.83;;;;;;;-2.21;100.00;103558.53;2105869;28;20194;-67
2024/01/31 04:32:54;;;;;;;8.17;4.90;;;;;;;-2.18;100.00;103568.81;2103947;28;20255;-67
2024/01/31 04:33:54;;;;;;;10.40;5.33;;;;;;;-2.37;100.00;103537.91;2101040;28;20203;-67
2024/01/31 04:34:55;;;;;;;11.47;5.60;;;;;;;-2.24;100.00;103557.16;2099863;28;20637;-67
2024/01/31 04:35:55;;;;;;;7.67;4.80;;;;;;;-2.31;100.00;103562.06;2105111;28;20231;-67
2024/01/31 04:36:56;;;;;;;10.27;4.73;;;;;;;-2.25;100.00;103571.03;2104255;28;20734;-67
2024/01/31 04:37:56;;;;;;;11.17;5.60;;;;;;;-2.85;100.00;103479.63;2102432;28;20286;-67